Time;durP1;ratioP1;P1;durP2;ratioP2;P2;SDS_P1;SDS_P2;PMS_P1;PMS_P2;Temp;Humidity;BMP_temperature;BMP_pressure;BME280_temperature;BME280_humidity;BME280_pressure;Samples;Min_cycle;Max_cycle;Signal;HPM_P1;HPM_P2
2021/12/20 00:01:46;;;;;;;33.63;18.70;;;5.80;99.90;;;;;;5013559;28;20053;-57
2021/12/20 00:04:12;;;;;;;35.92;20.17;;;5.80;99.90;;;;;;5006393;28;20034;-58
2021/12/20 00:06:38;;;;;;;38.47;20.45;;;5.80;99.90;;;;;;4993742;28;20462;-57
2021/12/20 00:09:04;;;;;;;39.60;20.05;;;5.70;99.90;;;;;;5007107;28;20038;-55
2021/12/20 00:11:30;;;;;;;37.67;20.73;;;5.70;99.90;;;;;;5005186;28;20452;-59
2021/12/20 00:13:56;;;;;;;39.75;19.85;;;5.70;99.90;;;;;;5004812;28;20069;-58
2021/12/20 00:16:21;;;;;;;38.30;19.92;;;5.70;99.90;;;;;;4998871;28;20037;-56
2021/12/20 00:18:47;;;;;;;40.58;20.60;;;5.80;99.90;;;;;;5009284;28;20053;-57
2021/12/20 00:21:12;;;;;;;34.45;18.52;;;5.70;99.90;;;;;;5006505;28;20443;-59
2021/12/20 00:23:38;;;;;;;33.33;18.92;;;5.70;99.90;;;;;;4995095;28;20133;-56
2021/12/20 00:26:04;;;;;;;34.47;16.58;;;5.70;99.90;;;;;;4999371;28;20030;-57
2021/12/20 00:28:30;;;;;;;29.23;16.35;;;5.80;99.90;;;;;;5003974;28;20049;-57
2021/12/20 00:30:56;;;;;;;36.83;16.80;;;5.70;99.90;;;;;;5001999;28;20112;-57
2021/12/20 00:33:22;;;;;;;37.58;17.77;;;5.70;99.90;;;;;;5007496;28;20030;-57
2021/12/20 00:35:49;;;;;;;42.30;18.60;;;5.70;99.90;;;;;;5008130;28;20460;-57
2021/12/20 00:40:59;;;;;;;40.22;19.23;;;5.70;99.90;;;;;;5012255;28;20068;-58
2021/12/20 00:43:25;;;;;;;37.30;19.33;;;5.70;99.90;;;;;;5010864;28;20053;-56
2021/12/20 00:45:50;;;;;;;36.15;20.08;;;5.80;99.90;;;;;;5012241;28;20030;-59
2021/12/20 00:48:16;;;;;;;42.80;19.70;;;5.70;99.90;;;;;;5009004;28;20026;-59
2021/12/20 00:50:43;;;;;;;36.28;19.80;;;5.70;99.90;;;;;;5005368;28;20472;-58
2021/12/20 00:53:10;;;;;;;38.20;20.63;;;5.70;99.90;;;;;;5001792;28;20392;-59
2021/12/20 00:55:36;;;;;;;47.00;21.08;;;5.70;99.90;;;;;;5009338;28;20391;-57
2021/12/20 00:58:02;;;;;;;45.85;23.05;;;5.70;99.90;;;;;;5006654;28;20740;-59
2021/12/20 01:00:34;;;;;;;44.47;20.52;;;5.70;99.90;;;;;;5009075;28;20097;-57
2021/12/20 01:03:02;;;;;;;43.88;21.35;;;5.70;99.90;;;;;;5008258;28;20032;-54
2021/12/20 01:05:28;;;;;;;46.25;23.67;;;5.70;99.90;;;;;;5008934;28;20109;-58
2021/12/20 01:07:57;;;;;;;48.45;22.55;;;5.70;99.90;;;;;;4993201;28;20133;-54
2021/12/20 01:10:24;;;;;;;42.92;22.05;;;5.70;99.90;;;;;;5008256;28;20091;-53
2021/12/20 01:12:50;;;;;;;37.20;21.88;;;5.60;99.90;;;;;;5007643;28;20548;-57
2021/12/20 01:15:27;;;;;;;48.13;21.70;;;5.60;99.90;;;;;;5008054;28;20034;-57
2021/12/20 01:17:53;;;;;;;42.90;22.05;;;5.60;99.90;;;;;;5006789;28;20080;-57
2021/12/20 01:20:19;;;;;;;44.38;22.42;;;5.70;99.90;;;;;;5008522;28;20780;-56
2021/12/20 01:22:46;;;;;;;43.13;22.85;;;5.60;99.90;;;;;;5007698;28;20042;-55
2021/12/20 01:25:13;;;;;;;46.70;21.77;;;5.60;99.90;;;;;;5007572;28;20057;-59
2021/12/20 01:27:38;;;;;;;51.17;22.98;;;5.60;99.90;;;;;;5005333;28;20029;-58
2021/12/20 01:30:06;;;;;;;54.83;24.45;;;5.60;99.90;;;;;;5007301;28;20403;-57
2021/12/20 01:32:32;;;;;;;49.88;22.83;;;5.60;99.90;;;;;;5005947;28;20048;-54
2021/12/20 01:34:58;;;;;;;55.17;22.77;;;5.60;99.90;;;;;;5008110;28;20101;-57
2021/12/20 01:37:23;;;;;;;47.20;22.63;;;5.60;99.90;;;;;;5006463;28;20042;-54
2021/12/20 01:39:49;;;;;;;45.17;19.98;;;5.70;99.90;;;;;;5007214;28;20499;-58
2021/12/20 01:42:19;;;;;;;45.88;19.88;;;5.60;99.90;;;;;;5003689;28;20038;-58
2021/12/20 01:44:46;;;;;;;46.85;19.83;;;5.60;99.90;;;;;;5005800;28;20045;-56
2021/12/20 01:47:13;;;;;;;41.42;18.75;;;5.60;99.90;;;;;;5000438;28;20106;-59
2021/12/20 01:49:53;;;;;;;41.10;17.75;;;5.60;99.90;;;;;;4998371;28;20037;-59
2021/12/20 01:52:21;;;;;;;38.67;15.50;;;5.60;99.90;;;;;;5007708;28;20038;-59
2021/12/20 01:54:47;;;;;;;37.75;15.30;;;5.50;99.90;;;;;;5005875;28;20394;-58
2021/12/20 01:57:13;;;;;;;38.50;16.77;;;5.50;99.90;;;;;;5007266;28;20117;-58
2021/12/20 01:59:39;;;;;;;36.40;16.17;;;5.50;99.90;;;;;;5008682;28;20049;-55
2021/12/20 02:02:05;;;;;;;36.17;16.30;;;5.50;99.90;;;;;;4995397;28;20049;-55
2021/12/20 02:04:31;;;;;;;38.72;15.18;;;5.50;99.90;;;;;;5006094;28;20025;-59
2021/12/20 02:06:57;;;;;;;36.15;16.08;;;5.50;99.90;;;;;;5006910;28;20018;-58
2021/12/20 02:09:23;;;;;;;33.40;16.63;;;5.50;99.90;;;;;;5004580;28;20116;-57
2021/12/20 02:11:50;;;;;;;39.75;16.80;;;5.60;99.90;;;;;;5008176;28;20026;-58
2021/12/20 02:14:18;;;;;;;41.47;18.45;;;5.50;99.90;;;;;;5005740;28;20049;-57
2021/12/20 02:16:44;;;;;;;43.15;18.52;;;5.60;99.90;;;;;;5006346;28;20030;-58
2021/12/20 02:19:13;;;;;;;37.05;18.70;;;5.50;99.90;;;;;;5004746;28;20112;-58
2021/12/20 02:21:40;;;;;;;41.30;17.95;;;5.50;99.90;;;;;;5004687;28;20563;-58
2021/12/20 02:24:07;;;;;;;47.00;22.08;;;5.50;99.90;;;;;;5005878;28;20400;-54
2021/12/20 02:26:32;;;;;;;44.97;20.52;;;5.50;99.90;;;;;;5006374;28;20096;-55
2021/12/20 02:29:06;;;;;;;52.10;23.48;;;5.60;99.90;;;;;;5007393;28;20440;-56
2021/12/20 02:37:15;;;;;;;49.47;22.10;;;5.60;99.90;;;;;;5006379;28;20048;-58
2021/12/20 02:39:42;;;;;;;51.33;21.10;;;5.60;99.90;;;;;;5011354;28;20052;-57
2021/12/20 02:42:10;;;;;;;47.47;21.80;;;5.60;99.90;;;;;;5011090;28;20025;-55
2021/12/20 02:44:36;;;;;;;51.72;23.15;;;5.60;99.90;;;;;;5010883;28;20030;-57
2021/12/20 02:47:06;;;;;;;46.50;21.40;;;5.60;99.90;;;;;;5012050;28;20533;-56
2021/12/20 02:49:33;;;;;;;45.70;21.35;;;5.50;99.90;;;;;;5010867;28;20026;-56
2021/12/20 02:52:07;;;;;;;53.22;23.30;;;5.60;99.90;;;;;;5011402;28;20029;-59
2021/12/20 02:54:34;;;;;;;48.15;21.45;;;5.60;99.90;;;;;;5009733;28;20030;-59
2021/12/20 02:57:00;;;;;;;58.00;21.27;;;5.60;99.90;;;;;;5007333;28;20034;-54
2021/12/20 02:59:26;;;;;;;44.58;21.98;;;5.60;99.90;;;;;;5010006;28;20028;-53
2021/12/20 03:01:56;;;;;;;57.35;23.77;;;5.60;99.90;;;;;;5009622;28;20060;-55
2021/12/20 03:04:22;;;;;;;48.53;22.00;;;5.60;99.90;;;;;;5009787;28;20061;-57
2021/12/20 03:06:54;;;;;;;47.00;20.50;;;5.50;99.90;;;;;;5010565;28;20037;-59
2021/12/20 03:09:23;;;;;;;45.22;20.02;;;5.60;99.90;;;;;;5010356;28;20076;-56
2021/12/20 03:11:55;;;;;;;58.65;20.70;;;5.60;99.90;;;;;;5011603;28;20064;-57
2021/12/20 03:14:27;;;;;;;49.03;20.25;;;5.60;99.90;;;;;;5008106;28;20038;-58
2021/12/20 03:16:53;;;;;;;39.35;17.63;;;5.60;99.90;;;;;;5009031;28;20054;-56
2021/12/20 03:19:19;;;;;;;40.55;17.60;;;5.50;99.90;;;;;;5009271;28;20029;-56
2021/12/20 03:21:44;;;;;;;40.17;18.25;;;5.50;99.90;;;;;;5006458;28;20030;-56
2021/12/20 03:24:10;;;;;;;43.75;15.90;;;5.60;99.90;;;;;;5006830;28;20026;-57
2021/12/20 03:26:36;;;;;;;48.40;18.30;;;5.60;99.90;;;;;;5011731;28;20041;-58
2021/12/20 03:29:03;;;;;;;45.33;16.77;;;5.60;99.90;;;;;;5012647;28;20038;-59
2021/12/20 03:31:29;;;;;;;37.42;16.83;;;5.60;99.90;;;;;;5010121;28;20129;-57
2021/12/20 03:33:54;;;;;;;48.72;17.30;;;5.60;99.90;;;;;;5008790;28;20555;-57
2021/12/20 03:36:20;;;;;;;40.15;17.48;;;5.60;99.90;;;;;;5009431;28;20414;-53
2021/12/20 03:38:46;;;;;;;34.60;16.63;;;5.50;99.90;;;;;;5009956;28;20030;-57
2021/12/20 03:41:11;;;;;;;45.15;15.90;;;5.50;99.90;;;;;;5010195;28;20033;-57
2021/12/20 03:43:37;;;;;;;41.20;14.60;;;5.50;99.90;;;;;;5009773;28;20028;-58
2021/12/20 03:46:04;;;;;;;38.75;15.02;;;5.50;99.90;;;;;;5010330;28;20037;-58
2021/12/20 03:48:30;;;;;;;32.53;14.25;;;5.50;99.90;;;;;;5006919;28;20059;-57
2021/12/20 03:50:57;;;;;;;32.40;12.63;;;5.50;99.90;;;;;;5007143;28;20026;-55
2021/12/20 03:53:22;;;;;;;30.55;11.45;;;5.50;99.90;;;;;;5007467;28;20032;-59
2021/12/20 03:55:48;;;;;;;32.25;12.65;;;5.50;99.90;;;;;;5010291;28;20033;-60
2021/12/20 03:58:14;;;;;;;29.48;12.02;;;5.50;99.90;;;;;;4992984;28;20046;-53
2021/12/20 04:00:40;;;;;;;32.35;13.05;;;5.40;99.90;;;;;;5009821;28;20060;-58
2021/12/20 04:03:10;;;;;;;33.28;10.60;;;5.40;99.90;;;;;;5005989;28;20027;-57
2021/12/20 04:05:37;;;;;;;30.48;10.80;;;5.40;99.90;;;;;;5006557;28;20120;-57
2021/12/20 04:08:02;;;;;;;30.10;9.75;;;5.40;99.90;;;;;;5007542;28;20026;-57
2021/12/20 04:10:28;;;;;;;29.67;9.90;;;5.40;99.90;;;;;;5010217;28;20492;-59
2021/12/20 04:12:54;;;;;;;29.00;9.02;;;5.40;99.90;;;;;;5007063;28;20847;-59
2021/12/20 04:15:19;;;;;;;25.23;7.80;;;5.40;99.90;;;;;;5009439;28;20041;-58
2021/12/20 04:17:45;;;;;;;26.17;8.10;;;5.40;99.90;;;;;;5010470;28;20038;-56
2021/12/20 04:20:11;;;;;;;30.95;8.32;;;5.40;99.90;;;;;;5009349;28;20455;-57
2021/12/20 04:22:36;;;;;;;34.80;8.23;;;5.30;99.90;;;;;;5001291;28;20042;-57
2021/12/20 04:25:03;;;;;;;25.33;7.47;;;5.40;99.90;;;;;;5003149;28;20034;-57
2021/12/20 04:27:29;;;;;;;24.60;7.10;;;5.30;99.90;;;;;;5009503;28;20447;-57
2021/12/20 04:29:55;;;;;;;29.20;6.65;;;5.30;99.90;;;;;;5006654;28;20117;-59
2021/12/20 04:32:21;;;;;;;28.83;6.22;;;5.30;99.90;;;;;;5007121;28;20129;-57
2021/12/20 04:34:47;;;;;;;20.65;6.45;;;5.40;99.90;;;;;;5005710;28;20108;-55
2021/12/20 04:37:12;;;;;;;35.25;7.25;;;5.40;99.90;;;;;;5008678;28;20108;-57
2021/12/20 04:39:38;;;;;;;26.10;5.88;;;5.40;99.90;;;;;;5009509;28;20022;-54
2021/12/20 04:42:04;;;;;;;21.05;5.88;;;5.30;99.90;;;;;;5009250;28;20030;-57
2021/12/20 04:44:30;;;;;;;22.27;6.30;;;5.30;99.90;;;;;;5007359;28;20476;-56
2021/12/20 04:46:56;;;;;;;28.77;5.93;;;5.30;99.90;;;;;;5006853;28;20133;-56
2021/12/20 04:49:24;;;;;;;25.95;5.38;;;5.30;99.90;;;;;;5007062;28;20033;-60
2021/12/20 04:51:53;;;;;;;15.07;4.35;;;5.20;99.90;;;;;;5006546;28;20108;-57
2021/12/20 04:54:20;;;;;;;24.48;5.10;;;5.20;99.90;;;;;;5006104;28;20407;-57
2021/12/20 04:56:46;;;;;;;24.25;4.53;;;5.20;99.90;;;;;;5006360;28;20049;-59
2021/12/20 04:59:11;;;;;;;21.17;4.07;;;5.20;99.90;;;;;;5007494;28;20484;-58
2021/12/20 05:01:37;;;;;;;34.60;6.10;;;5.20;99.90;;;;;;5005441;28;20038;-58
2021/12/20 05:04:03;;;;;;;29.67;4.43;;;5.20;99.90;;;;;;5006052;28;20108;-57
2021/12/20 05:06:31;;;;;;;23.20;4.50;;;5.20;99.90;;;;;;5006976;28;20045;-57
2021/12/20 05:08:57;;;;;;;22.73;3.25;;;5.20;99.90;;;;;;4992747;28;20038;-57
2021/12/20 05:11:23;;;;;;;16.60;3.65;;;5.20;99.90;;;;;;5008704;28;20065;-58
2021/12/20 05:13:49;;;;;;;15.82;3.22;;;5.20;99.90;;;;;;5004868;28;20026;-60
2021/12/20 05:16:15;;;;;;;19.70;3.10;;;5.20;99.90;;;;;;5008661;28;20088;-57
2021/12/20 05:18:40;;;;;;;22.38;3.13;;;5.20;99.90;;;;;;5007237;28;20042;-57
2021/12/20 05:21:06;;;;;;;25.80;4.15;;;5.20;99.90;;;;;;5005233;28;20037;-57
2021/12/20 05:23:31;;;;;;;15.20;4.20;;;5.20;99.90;;;;;;5005399;28;20029;-58
2021/12/20 05:25:57;;;;;;;22.20;3.95;;;5.20;99.90;;;;;;5008848;28;20054;-55
2021/12/20 05:28:23;;;;;;;21.70;3.40;;;5.20;99.90;;;;;;5000297;28;20042;-58
2021/12/20 05:30:51;;;;;;;25.10;3.42;;;5.20;99.90;;;;;;5002754;28;20030;-55
2021/12/20 05:33:17;;;;;;;25.80;4.82;;;5.20;99.90;;;;;;5004352;28;20041;-60
2021/12/20 05:35:43;;;;;;;27.63;3.90;;;5.20;99.90;;;;;;5005104;28;20034;-58
2021/12/20 05:38:08;;;;;;;20.30;4.30;;;5.10;99.90;;;;;;5007119;28;20052;-59
2021/12/20 05:40:35;;;;;;;27.75;5.30;;;5.10;99.90;;;;;;5007971;28;20034;-58
2021/12/20 05:43:01;;;;;;;13.52;4.53;;;5.10;99.90;;;;;;5006669;28;20046;-58
2021/12/20 05:45:27;;;;;;;19.63;3.53;;;5.10;99.90;;;;;;5005206;28;20068;-56
2021/12/20 05:47:52;;;;;;;22.92;3.78;;;5.20;99.90;;;;;;5005243;28;20063;-55
2021/12/20 05:50:20;;;;;;;19.27;3.63;;;5.10;99.90;;;;;;5006821;28;20420;-58
2021/12/20 05:52:46;;;;;;;25.77;4.05;;;5.10;99.90;;;;;;5006532;28;20479;-56
2021/12/20 05:55:13;;;;;;;14.57;3.25;;;5.10;99.90;;;;;;5007062;28;20048;-58
2021/12/20 05:57:39;;;;;;;28.52;3.83;;;5.10;99.90;;;;;;5005093;28;20069;-59
2021/12/20 06:00:12;;;;;;;21.95;3.88;;;5.20;99.90;;;;;;5004365;28;20074;-57
2021/12/20 06:02:38;;;;;;;27.58;4.07;;;5.20;99.90;;;;;;5005787;28;20033;-58
2021/12/20 06:05:04;;;;;;;25.15;4.32;;;5.10;99.90;;;;;;5008879;28;20076;-59
2021/12/20 06:07:30;;;;;;;22.33;4.07;;;5.10;99.90;;;;;;4989370;28;20412;-59
2021/12/20 06:09:55;;;;;;;19.60;3.78;;;5.10;99.90;;;;;;5003751;28;20029;-55
2021/12/20 06:12:21;;;;;;;16.85;3.90;;;5.10;99.90;;;;;;5005018;28;20034;-58
2021/12/20 06:14:46;;;;;;;21.25;3.80;;;5.00;99.90;;;;;;5005140;28;20038;-56
2021/12/20 06:17:12;;;;;;;17.15;3.08;;;5.00;99.90;;;;;;5004220;28;20030;-57
2021/12/20 06:19:39;;;;;;;18.52;3.30;;;5.00;99.90;;;;;;5007388;28;20034;-57
2021/12/20 06:22:07;;;;;;;22.48;4.18;;;5.00;99.90;;;;;;5003813;28;20040;-57
2021/12/20 06:24:34;;;;;;;26.25;3.70;;;4.90;99.90;;;;;;5007658;28;20069;-59
2021/12/20 06:27:00;;;;;;;51.78;14.55;;;4.90;99.90;;;;;;5006690;28;20032;-58
2021/12/20 06:29:26;;;;;;;38.08;9.73;;;4.90;99.90;;;;;;5001103;28;20113;-58
2021/12/20 06:31:51;;;;;;;18.70;3.20;;;4.90;99.90;;;;;;5006847;28;20026;-55
2021/12/20 06:34:18;;;;;;;33.38;7.50;;;4.80;99.90;;;;;;5009365;28;20076;-56
2021/12/20 06:36:43;;;;;;;32.55;5.72;;;4.90;99.90;;;;;;5008233;28;20042;-59
2021/12/20 06:39:09;;;;;;;23.77;4.80;;;4.80;99.90;;;;;;5004424;28;20124;-56
2021/12/20 06:41:35;;;;;;;20.13;3.65;;;4.80;99.90;;;;;;5005584;28;20041;-59
2021/12/20 06:44:02;;;;;;;27.42;6.53;;;4.80;99.90;;;;;;5004620;28;20061;-57
2021/12/20 06:46:28;;;;;;;32.05;8.95;;;4.80;99.90;;;;;;5005753;28;20030;-54
2021/12/20 06:48:53;;;;;;;30.95;7.15;;;4.80;99.90;;;;;;5005876;28;20026;-59
2021/12/20 06:51:19;;;;;;;27.15;5.28;;;4.80;99.90;;;;;;5005246;28;20064;-61
2021/12/20 06:53:45;;;;;;;53.72;14.25;;;4.80;99.90;;;;;;5005808;28;20030;-57
2021/12/20 06:56:12;;;;;;;30.65;5.55;;;4.70;99.90;;;;;;5006521;28;20030;-54
2021/12/20 06:58:37;;;;;;;32.58;8.88;;;4.80;99.90;;;;;;5002055;28;20034;-57
2021/12/20 07:01:03;;;;;;;40.28;9.88;;;4.80;99.90;;;;;;5004525;28;20028;-57
2021/12/20 07:03:29;;;;;;;59.50;14.25;;;4.80;99.90;;;;;;5002966;28;20119;-57
2021/12/20 07:05:54;;;;;;;54.35;13.50;;;4.80;99.90;;;;;;5004792;28;20133;-58
2021/12/20 07:08:20;;;;;;;33.53;8.95;;;4.80;99.90;;;;;;4988606;28;20132;-57
2021/12/20 07:10:45;;;;;;;81.30;24.17;;;4.80;99.90;;;;;;5003815;28;20077;-58
2021/12/20 07:13:11;;;;;;;59.88;19.15;;;4.70;99.90;;;;;;5002729;28;20113;-60
2021/12/20 07:15:37;;;;;;;93.63;29.15;;;4.70;99.90;;;;;;5007616;28;20030;-59
2021/12/20 07:18:04;;;;;;;47.20;13.73;;;4.70;99.90;;;;;;5005504;28;20032;-57
2021/12/20 07:20:29;;;;;;;34.20;9.57;;;4.70;99.90;;;;;;5000354;28;20176;-59
2021/12/20 07:22:55;;;;;;;33.00;6.85;;;4.60;99.90;;;;;;5005333;28;20116;-58
2021/12/20 07:25:21;;;;;;;87.18;26.10;;;4.60;99.90;;;;;;5008267;28;20037;-55
2021/12/20 07:27:51;;;;;;;37.90;10.70;;;4.50;99.90;;;;;;5008567;28;20065;-58
2021/12/20 07:30:18;;;;;;;86.88;22.75;;;4.60;99.90;;;;;;5004990;28;20022;-53
2021/12/20 07:32:44;;;;;;;80.20;23.52;;;4.60;99.90;;;;;;5009432;28;20093;-56
2021/12/20 07:35:10;;;;;;;46.65;12.18;;;4.50;99.90;;;;;;5008025;28;20033;-58
2021/12/20 07:37:36;;;;;;;32.35;6.47;;;4.50;99.90;;;;;;5007248;28;20049;-57
2021/12/20 07:40:07;;;;;;;18.92;3.75;;;4.50;99.90;;;;;;5005778;28;20111;-54
2021/12/20 07:42:33;;;;;;;25.45;6.05;;;4.50;99.90;;;;;;5003903;28;20038;-57
2021/12/20 07:44:59;;;;;;;17.60;5.22;;;4.40;99.90;;;;;;5006727;28;20029;-57
2021/12/20 07:47:24;;;;;;;26.55;6.10;;;4.40;99.90;;;;;;5008812;28;20037;-59
2021/12/20 07:49:50;;;;;;;25.23;5.18;;;4.30;99.90;;;;;;5004329;28;20029;-57
2021/12/20 07:52:16;;;;;;;26.58;5.55;;;4.30;99.90;;;;;;5006998;28;20080;-53
2021/12/20 07:54:41;;;;;;;17.98;4.32;;;4.20;99.90;;;;;;5009983;28;20069;-56
2021/12/20 07:57:07;;;;;;;21.40;6.22;;;4.10;99.90;;;;;;5009038;28;20080;-54
2021/12/20 07:59:32;;;;;;;37.50;9.82;;;4.00;99.90;;;;;;5009373;28;20045;-56
2021/12/20 08:01:58;;;;;;;22.55;7.55;;;4.00;99.90;;;;;;5005843;28;20540;-58
2021/12/20 08:04:24;;;;;;;42.13;8.70;;;3.90;99.90;;;;;;5007523;28;20551;-59
2021/12/20 08:06:49;;;;;;;49.38;14.45;;;3.90;99.90;;;;;;5008779;28;20041;-58
2021/12/20 08:09:15;;;;;;;48.08;15.27;;;3.80;99.90;;;;;;4986827;28;20100;-57
2021/12/20 08:11:42;;;;;;;51.33;12.30;;;3.80;99.90;;;;;;5010582;28;20108;-59
2021/12/20 08:14:08;;;;;;;40.40;13.20;;;3.70;99.90;;;;;;5004164;28;20045;-57
2021/12/20 08:16:34;;;;;;;41.72;12.52;;;3.70;99.90;;;;;;5008380;28;20030;-58
2021/12/20 08:18:59;;;;;;;27.15;6.20;;;3.70;99.90;;;;;;5007317;28;20558;-57
2021/12/20 08:21:25;;;;;;;38.92;8.90;;;3.70;99.90;;;;;;5002181;28;20034;-52
2021/12/20 08:23:51;;;;;;;32.65;7.80;;;3.70;99.90;;;;;;5005165;28;20028;-60
2021/12/20 08:26:16;;;;;;;41.85;8.00;;;3.70;99.90;;;;;;5007241;28;20399;-51
2021/12/20 08:28:42;;;;;;;28.48;4.93;;;3.70;99.90;;;;;;5007822;28;20104;-58
2021/12/20 08:31:09;;;;;;;24.08;5.20;;;3.70;99.90;;;;;;5007380;28;20083;-58
2021/12/20 08:33:36;;;;;;;28.38;5.32;;;3.70;99.90;;;;;;5007471;28;20033;-58
2021/12/20 08:36:05;;;;;;;34.13;6.15;;;3.70;99.90;;;;;;5007373;28;20022;-57
2021/12/20 08:38:32;;;;;;;19.90;5.18;;;3.60;99.90;;;;;;5007600;28;20407;-58
2021/12/20 08:40:58;;;;;;;30.25;5.18;;;3.60;99.90;;;;;;5007382;28;20036;-56
2021/12/20 08:43:24;;;;;;;25.95;5.35;;;3.60;99.90;;;;;;5007044;28;20030;-55
2021/12/20 08:45:50;;;;;;;27.23;7.15;;;3.70;99.90;;;;;;5006081;28;20084;-57
2021/12/20 08:48:15;;;;;;;28.35;5.80;;;3.70;99.90;;;;;;5008647;28;20030;-57
2021/12/20 08:50:42;;;;;;;26.88;6.78;;;3.70;99.90;;;;;;5007709;28;20022;-58
2021/12/20 08:53:10;;;;;;;20.45;4.30;;;3.80;99.90;;;;;;5008666;28;20045;-57
2021/12/20 08:55:37;;;;;;;24.42;5.63;;;3.80;99.90;;;;;;5009078;28;20029;-59
2021/12/20 08:58:03;;;;;;;23.40;4.32;;;3.80;99.90;;;;;;5005078;28;20033;-57
2021/12/20 09:00:32;;;;;;;28.42;4.68;;;3.80;99.90;;;;;;5002312;28;20045;-59
2021/12/20 09:02:58;;;;;;;18.50;4.38;;;3.80;99.90;;;;;;5007534;28;20048;-57
2021/12/20 09:05:27;;;;;;;22.33;5.25;;;3.80;99.90;;;;;;5007374;28;20034;-58
2021/12/20 09:07:55;;;;;;;23.20;5.40;;;3.80;99.90;;;;;;4988763;28;20341;-56
2021/12/20 09:10:21;;;;;;;20.55;5.30;;;3.90;99.90;;;;;;5005875;28;20038;-54
2021/12/20 09:12:46;;;;;;;34.78;5.43;;;3.90;99.90;;;;;;5007342;28;20517;-59
2021/12/20 09:15:15;;;;;;;36.83;5.57;;;3.90;99.90;;;;;;5008308;28;20030;-58
2021/12/20 09:17:45;;;;;;;22.55;4.53;;;4.00;99.90;;;;;;5000613;28;20075;-57
2021/12/20 09:20:12;;;;;;;30.63;6.10;;;4.00;99.90;;;;;;5007292;28;20030;-54
2021/12/20 09:22:50;;;;;;;30.70;5.43;;;4.00;99.90;;;;;;5008662;28;20539;-59
2021/12/20 09:25:17;;;;;;;17.98;4.85;;;4.00;99.90;;;;;;5007723;28;20743;-57
2021/12/20 09:27:42;;;;;;;26.92;6.20;;;4.00;99.90;;;;;;5005702;28;20034;-57
2021/12/20 09:30:09;;;;;;;22.92;4.95;;;4.00;99.90;;;;;;5007761;28;20033;-58
2021/12/20 09:32:34;;;;;;;25.98;4.95;;;4.00;99.90;;;;;;5006796;28;20034;-57
2021/12/20 09:35:00;;;;;;;42.50;6.35;;;4.10;99.90;;;;;;5002235;28;20029;-54
2021/12/20 09:37:25;;;;;;;23.92;4.75;;;4.10;99.90;;;;;;5005459;28;20049;-55
2021/12/20 09:39:54;;;;;;;31.92;8.23;;;4.10;99.90;;;;;;5008175;28;20026;-54
2021/12/20 09:42:22;;;;;;;33.47;7.38;;;4.20;99.90;;;;;;5005253;28;20517;-57
2021/12/20 09:44:48;;;;;;;36.67;4.35;;;4.20;99.90;;;;;;5006340;28;20038;-59
2021/12/20 09:47:14;;;;;;;21.02;5.35;;;4.20;99.90;;;;;;5003066;28;20503;-60
2021/12/20 09:49:39;;;;;;;23.67;4.35;;;4.20;99.90;;;;;;5007845;28;20065;-59
2021/12/20 09:52:05;;;;;;;22.77;4.32;;;4.20;99.90;;;;;;5003056;28;20514;-55
2021/12/20 09:54:31;;;;;;;32.45;5.82;;;4.30;99.90;;;;;;5007712;28;20049;-58
2021/12/20 09:56:59;;;;;;;26.55;4.60;;;4.30;99.90;;;;;;5005903;28;20034;-57
2021/12/20 09:59:28;;;;;;;35.75;5.82;;;4.30;99.90;;;;;;5005933;28;20033;-58
2021/12/20 10:01:54;;;;;;;20.85;3.75;;;4.30;99.90;;;;;;5000584;28;20036;-55
2021/12/20 10:04:22;;;;;;;20.48;4.35;;;4.30;99.90;;;;;;5004088;28;20030;-60
2021/12/20 10:06:58;;;;;;;26.30;4.95;;;4.30;99.90;;;;;;5005219;28;20109;-58
2021/12/20 10:09:29;;;;;;;25.83;4.28;;;4.30;99.90;;;;;;4986864;28;20045;-57
2021/12/20 10:12:14;;;;;;;20.95;3.95;;;4.40;99.90;;;;;;5001008;28;20041;-54
2021/12/20 10:14:52;;;;;;;;;;;4.40;99.90;;;;;;5005537;28;20076;-59
2021/12/20 10:17:17;;;;;;;26.38;4.22;;;4.40;99.90;;;;;;5005212;28;19970;-58
2021/12/20 10:19:43;;;;;;;23.25;4.38;;;4.40;99.90;;;;;;5005932;28;20483;-56
2021/12/20 10:22:28;;;;;;;23.13;4.55;;;4.40;99.90;;;;;;5003223;28;20454;-59
2021/12/20 10:24:54;;;;;;;22.88;4.32;;;4.50;99.90;;;;;;5002311;28;20026;-59
2021/12/20 10:27:27;;;;;;;34.38;5.93;;;4.40;99.90;;;;;;5004327;28;20035;-59
2021/12/20 10:29:53;;;;;;;20.30;5.10;;;4.40;99.90;;;;;;5003061;28;20639;-58
2021/12/20 10:32:40;;;;;;;22.30;5.65;;;4.50;99.90;;;;;;5002320;28;20080;-53
2021/12/20 10:35:24;;;;;;;19.33;5.55;;;4.50;99.90;;;;;;5005116;28;20550;-57
2021/12/20 10:37:51;;;;;;;29.88;4.93;;;4.50;99.90;;;;;;5007039;28;20030;-55
2021/12/20 10:40:16;;;;;;;30.08;4.78;;;4.50;99.90;;;;;;5005689;28;20033;-57
2021/12/20 10:42:42;;;;;;;30.83;4.78;;;4.50;99.90;;;;;;5002214;28;20088;-54
2021/12/20 10:45:18;;;;;;;24.92;3.95;;;4.60;99.90;;;;;;5006068;28;20041;-59
2021/12/20 10:47:44;;;;;;;19.77;3.80;;;4.60;99.90;;;;;;5003489;28;20025;-59
2021/12/20 10:50:25;;;;;;;20.17;4.00;;;4.60;99.90;;;;;;5004571;28;20484;-55
2021/12/20 10:52:52;;;;;;;15.15;3.47;;;4.60;99.90;;;;;;5005934;28;20038;-56
2021/12/20 10:55:57;;;;;;;18.65;3.45;;;4.80;99.90;;;;;;5008113;28;20364;-56
2021/12/20 10:58:33;;;;;;;28.38;3.40;;;4.80;99.90;;;;;;5002366;28;20033;-57
2021/12/20 11:01:47;;;;;;;16.88;3.22;;;4.90;99.90;;;;;;5006497;28;20121;-58
2021/12/20 11:04:14;;;;;;;30.13;3.43;;;4.90;99.90;;;;;;5004946;28;20068;-56
2021/12/20 11:09:20;;;;;;;16.42;3.47;;;5.00;99.90;;;;;;4992551;28;20072;-57
2021/12/20 11:11:52;;;;;;;12.07;2.20;;;5.00;99.90;;;;;;5009685;28;20483;-57
2021/12/20 11:14:22;;;;;;;17.38;2.63;;;5.00;99.90;;;;;;5009940;28;20083;-51
2021/12/20 11:16:51;;;;;;;11.88;2.35;;;5.00;99.90;;;;;;5006663;28;20124;-56
2021/12/20 11:19:21;;;;;;;11.82;2.63;;;5.10;99.90;;;;;;5009381;28;20044;-59
2021/12/20 11:22:11;;;;;;;20.60;5.00;;;5.10;99.90;;;;;;5010219;28;20666;-58
2021/12/20 11:24:42;;;;;;;15.00;2.35;;;5.10;99.90;;;;;;5007433;28;20506;-54
2021/12/20 11:27:12;;;;;;;13.98;2.20;;;5.10;99.90;;;;;;5007259;28;20022;-57
2021/12/20 11:29:39;;;;;;;10.07;2.13;;;5.20;99.90;;;;;;5009355;28;20053;-55
2021/12/20 11:32:05;;;;;;;17.25;3.78;;;5.20;99.90;;;;;;5010553;28;20034;-58
2021/12/20 11:34:33;;;;;;;13.25;1.98;;;5.20;99.90;;;;;;5008796;28;20026;-56
2021/12/20 11:36:58;;;;;;;8.45;2.00;;;5.20;99.90;;;;;;5010236;28;20068;-57
2021/12/20 11:39:25;;;;;;;11.10;2.03;;;5.20;99.90;;;;;;5010332;28;20053;-57
2021/12/20 11:41:51;;;;;;;12.77;2.63;;;5.30;99.90;;;;;;5010746;28;20022;-57
2021/12/20 11:44:19;;;;;;;7.57;2.00;;;5.30;99.90;;;;;;5009889;28;20026;-59
2021/12/20 11:47:03;;;;;;;13.07;2.50;;;5.30;99.90;;;;;;5008852;28;20108;-56
2021/12/20 11:49:31;;;;;;;16.67;3.58;;;5.40;99.90;;;;;;5007775;28;20033;-58
2021/12/20 11:52:00;;;;;;;7.60;2.17;;;5.30;99.90;;;;;;5008125;28;20526;-57
2021/12/20 11:54:47;;;;;;;10.23;2.10;;;5.30;99.90;;;;;;5009573;28;20096;-54
2021/12/20 11:57:28;;;;;;;9.85;2.08;;;5.30;99.90;;;;;;5004465;28;20029;-57
2021/12/20 11:59:59;;;;;;;10.52;2.10;;;5.30;99.90;;;;;;5008270;28;20040;-57
2021/12/20 12:02:33;;;;;;;15.90;4.07;;;5.30;99.90;;;;;;5008246;28;20414;-57
2021/12/20 12:05:12;;;;;;;19.35;6.85;;;5.30;99.90;;;;;;5007336;28;20018;-58
2021/12/20 12:07:39;;;;;;;16.90;5.13;;;5.30;99.90;;;;;;5007769;28;20034;-57
2021/12/20 12:10:15;;;;;;;38.13;17.25;;;5.30;99.90;;;;;;4983458;28;20042;-58
2021/12/20 12:12:44;;;;;;;10.43;2.35;;;5.30;99.90;;;;;;5006444;28;20030;-54
2021/12/20 12:15:20;;;;;;;12.95;2.33;;;5.30;99.90;;;;;;5008558;28;20496;-56
2021/12/20 12:18:03;;;;;;;19.27;7.22;;;5.30;99.90;;;;;;5008076;28;20503;-59
2021/12/20 12:20:42;;;;;;;18.60;3.97;;;5.30;99.90;;;;;;5008816;28;20703;-57
2021/12/20 12:23:28;;;;;;;7.63;2.42;;;5.30;99.90;;;;;;5008907;28;20033;-58
2021/12/20 12:25:57;;;;;;;35.20;10.70;;;5.30;99.90;;;;;;5009480;28;20133;-55
2021/12/20 12:28:24;;;;;;;8.35;1.67;;;5.30;99.90;;;;;;5009767;28;20488;-56
2021/12/20 12:30:58;;;;;;;18.25;5.78;;;5.30;99.90;;;;;;5008758;28;20021;-57
2021/12/20 12:33:28;;;;;;;5.78;1.77;;;5.30;99.90;;;;;;5008796;28;20037;-57
2021/12/20 12:35:55;;;;;;;8.45;1.67;;;5.30;99.90;;;;;;5008499;28;20034;-56
2021/12/20 12:38:25;;;;;;;7.10;1.38;;;5.30;99.90;;;;;;5008118;28;20025;-50
2021/12/20 12:41:13;;;;;;;9.40;1.50;;;5.30;99.30;;;;;;5009061;28;20033;-56
2021/12/20 12:44:05;;;;;;;10.13;1.15;;;5.30;98.20;;;;;;5008210;28;20832;-56
2021/12/20 12:46:41;;;;;;;4.53;1.30;;;5.30;97.80;;;;;;5006115;28;20034;-58
2021/12/20 12:49:22;;;;;;;5.68;2.35;;;5.30;98.40;;;;;;5008318;28;20040;-57
2021/12/20 12:52:22;;;;;;;4.18;1.52;;;5.30;97.90;;;;;;5007456;28;20025;-58
2021/12/20 12:55:01;;;;;;;10.43;2.45;;;5.30;98.90;;;;;;4997765;28;20400;-57
2021/12/20 12:57:27;;;;;;;87.40;33.08;;;5.30;99.90;;;;;;5007579;28;20029;-59
2021/12/20 12:59:54;;;;;;;11.40;4.72;;;5.30;96.90;;;;;;5008612;28;20066;-53